Time;durP1;ratioP1;P1;durP2;ratioP2;P2;SDS_P1;SDS_P2;PMS_P1;PMS_P2;Temp;Humidity;BMP_temperature;BMP_pressure;BME280_temperature;BME280_humidity;BME280_pressure;Samples;Min_cycle;Max_cycle;Signal;HPM_P1;HPM_P2
2022/10/01 00:00:16;;;;;;;2.85;1.33;;;;;;;;;;5045736;28;20049;-74
2022/10/01 00:02:46;;;;;;;3.20;1.60;;;;;;;;;;5045862;28;20064;-72
2022/10/01 00:05:17;;;;;;;3.38;1.60;;;;;;;;;;5046238;28;20057;-77
2022/10/01 00:07:47;;;;;;;;;;;;;;;;;;5046951;28;20056;-69
2022/10/01 00:10:17;;;;;;;2.95;1.50;;;;;;;;;;5046048;28;20288;-71
2022/10/01 00:12:48;;;;;;;2.83;1.40;;;;;;;;;;5047148;28;20055;-71
2022/10/01 00:15:19;;;;;;;4.97;2.40;;;;;;;;;;5049252;28;20049;-71
2022/10/01 00:17:50;;;;;;;4.10;1.95;;;;;;;;;;5049826;28;20511;-72
2022/10/01 00:20:19;;;;;;;5.95;2.80;;;;;;;;;;5049846;28;20071;-73
2022/10/01 00:22:49;;;;;;;;;;;;;;;;;;5050366;28;20049;-75
2022/10/01 00:25:18;;;;;;;4.93;2.38;;;;;;;;;;5049855;28;19924;-72
2022/10/01 00:27:48;;;;;;;5.15;2.42;;;;;;;;;;5049488;28;20476;-71
2022/10/01 00:30:18;;;;;;;4.80;2.50;;;;;;;;;;5049261;28;20060;-73
2022/10/01 00:32:48;;;;;;;2.85;1.85;;;;;;;;;;5050467;28;20049;-74
2022/10/01 00:35:18;;;;;;;2.55;1.77;;;;;;;;;;5049219;28;20060;-74
2022/10/01 00:37:52;;;;;;;2.35;1.70;;;;;;;;;;5050203;28;20045;-72
2022/10/01 00:40:22;;;;;;;2.28;1.70;;;;;;;;;;5049430;28;20045;-72
2022/10/01 00:42:52;;;;;;;2.92;1.40;;;;;;;;;;5049410;28;20049;-69
2022/10/01 00:45:22;;;;;;;4.47;1.63;;;;;;;;;;5049404;28;20526;-73
2022/10/01 00:47:57;;;;;;;2.50;1.63;;;;;;;;;;5048840;28;20049;-72
2022/10/01 00:50:33;;;;;;;2.30;1.60;;;;;;;;;;5049309;28;20409;-72
2022/10/01 00:53:10;;;;;;;2.72;1.60;;;;;;;;;;5049114;28;20380;-72
2022/10/01 00:55:46;;;;;;;2.17;1.63;;;;;;;;;;5049481;28;20045;-74
2022/10/01 00:58:19;;;;;;;3.00;1.63;;;;;;;;;;5049660;28;20064;-73
2022/10/01 01:00:50;;;;;;;6.00;1.80;;;;;;;;;;5049518;28;20033;-72
2022/10/01 01:03:20;;;;;;;1.90;1.50;;;;;;;;;;5048455;28;20049;-72
2022/10/01 01:05:50;;;;;;;3.20;1.58;;;;;;;;;;5049020;28;20049;-75
2022/10/01 01:08:20;;;;;;;4.70;1.55;;;;;;;;;;5049709;28;20496;-74
2022/10/01 01:11:09;;;;;;;4.95;1.60;;;;;;;;;;5049065;28;20060;-72
2022/10/01 01:13:49;;;;;;;7.07;1.75;;;;;;;;;;5047077;28;20373;-74
2022/10/01 01:16:45;;;;;;;5.97;2.33;;;;;;;;;;5046525;28;20056;-71
2022/10/01 01:19:28;;;;;;;3.42;1.65;;;;;;;;;;5047340;28;20681;-77
2022/10/01 01:22:02;;;;;;;2.42;1.80;;;;;;;;;;5048043;28;20048;-76
2022/10/01 01:24:54;;;;;;;4.05;1.73;;;;;;;;;;5045964;28;20059;-75
2022/10/01 01:27:43;;;;;;;3.10;1.98;;;;;;;;;;5047990;28;20069;-74
2022/10/01 01:30:16;;;;;;;3.85;1.95;;;;;;;;;;5048681;28;20048;-75
2022/10/01 01:32:51;;;;;;;2.42;1.95;;;;;;;;;;5048846;28;20446;-73
2022/10/01 01:35:40;;;;;;;2.47;1.80;;;;;;;;;;5048904;28;20060;-76
2022/10/01 01:38:19;;;;;;;3.53;1.83;;;;;;;;;;5048462;28;20052;-74
2022/10/01 01:40:54;;;;;;;2.42;1.75;;;;;;;;;;5048739;28;20597;-75
2022/10/01 01:43:33;;;;;;;3.95;1.90;;;;;;;;;;5048846;28;20040;-74
2022/10/01 01:46:07;;;;;;;4.32;1.83;;;;;;;;;;5048095;28;20068;-77
2022/10/01 01:48:40;;;;;;;4.00;1.73;;;;;;;;;;5048201;28;20049;-73
2022/10/01 01:51:19;;;;;;;2.80;1.77;;;;;;;;;;5048409;28;20041;-76
2022/10/01 01:53:50;;;;;;;3.10;2.10;;;;;;;;;;5049068;28;20049;-72
2022/10/01 01:56:20;;;;;;;2.50;2.17;;;;;;;;;;5048562;28;20520;-74
2022/10/01 01:58:51;;;;;;;3.90;2.13;;;;;;;;;;5047926;28;20053;-73
2022/10/01 02:01:40;;;;;;;4.47;2.22;;;;;;;;;;5048190;28;20056;-73
2022/10/01 02:04:16;;;;;;;4.82;2.47;;;;;;;;;;5047895;28;20519;-73
2022/10/01 02:07:04;;;;;;;5.35;2.90;;;;;;;;;;5048673;28;20045;-73
2022/10/01 02:10:03;;;;;;;6.72;3.90;;;;;;;;;;5047871;28;20045;-69
2022/10/01 02:12:40;;;;;;;5.13;3.35;;;;;;;;;;5045511;28;20053;-71
2022/10/01 02:15:19;;;;;;;7.78;4.07;;;;;;;;;;5047818;28;20041;-73
2022/10/01 02:18:15;;;;;;;9.05;5.28;;;;;;;;;;5048210;28;20542;-71
2022/10/01 02:21:11;;;;;;;15.07;6.55;;;;;;;;;;5048273;28;20523;-71
2022/10/01 02:23:57;;;;;;;15.75;8.02;;;;;;;;;;5047730;28;20068;-74
2022/10/01 02:26:29;;;;;;;15.80;10.15;;;;;;;;;;5046264;28;20053;-74
2022/10/01 02:29:07;;;;;;;22.85;10.98;;;;;;;;;;5047599;28;20045;-73
2022/10/01 02:31:37;;;;;;;19.13;12.60;;;;;;;;;;5047532;28;20051;-73
2022/10/01 02:34:10;;;;;;;25.67;14.60;;;;;;;;;;5047369;28;20056;-75
2022/10/01 02:36:42;;;;;;;25.83;14.45;;;;;;;;;;5047054;28;20056;-76
2022/10/01 02:39:18;;;;;;;32.45;13.88;;;;;;;;;;5047681;28;20056;-71
2022/10/01 02:41:50;;;;;;;26.48;13.98;;;;;;;;;;5047538;28;20052;-71
2022/10/01 02:44:29;;;;;;;36.63;15.18;;;;;;;;;;5047317;28;20159;-75
2022/10/01 02:47:06;;;;;;;32.20;14.18;;;;;;;;;;5047287;28;20439;-74
2022/10/01 02:49:40;;;;;;;27.38;14.93;;;;;;;;;;5046142;28;20061;-73
2022/10/01 02:52:27;;;;;;;28.60;14.35;;;;;;;;;;5047369;28;20045;-72
2022/10/01 02:55:06;;;;;;;26.33;12.00;;;;;;;;;;5046355;28;20049;-74
2022/10/01 02:57:37;;;;;;;28.02;14.07;;;;;;;;;;5047882;28;20048;-72
2022/10/01 03:00:13;;;;;;;27.85;13.65;;;;;;;;;;5047300;28;20498;-73
2022/10/01 03:02:43;;;;;;;29.45;13.60;;;;;;;;;;5047027;28;20040;-75
2022/10/01 03:05:14;;;;;;;78.13;12.80;;;;;;;;;;5046524;28;20701;-74
2022/10/01 03:07:44;;;;;;;36.75;11.00;;;;;;;;;;5047416;28;20045;-76
2022/10/01 03:10:15;;;;;;;147.75;12.73;;;;;;;;;;5047432;28;20087;-75
2022/10/01 03:12:45;;;;;;;185.55;13.30;;;;;;;;;;5047310;28;20049;-74
2022/10/01 03:15:18;;;;;;;105.40;12.73;;;;;;;;;;5046764;28;20048;-74
2022/10/01 03:17:52;;;;;;;143.57;12.68;;;;;;;;;;5047540;28;20463;-73
2022/10/01 03:20:22;;;;;;;53.55;11.52;;;;;;;;;;5047745;28;20067;-74
2022/10/01 03:22:52;;;;;;;31.67;12.38;;;;;;;;;;5046950;28;20045;-73
2022/10/01 03:25:22;;;;;;;23.05;11.85;;;;;;;;;;5046814;28;20491;-73
2022/10/01 03:27:52;;;;;;;22.60;12.20;;;;;;;;;;5046369;28;20053;-73
2022/10/01 03:30:22;;;;;;;24.00;12.20;;;;;;;;;;5046564;28;20428;-74
2022/10/01 03:32:52;;;;;;;20.40;11.55;;;;;;;;;;5046589;28;20045;-74
2022/10/01 03:35:23;;;;;;;21.45;13.07;;;;;;;;;;5046532;28;20045;-74
2022/10/01 03:37:53;;;;;;;16.73;11.25;;;;;;;;;;5046577;28;20045;-73
2022/10/01 03:40:24;;;;;;;24.23;12.15;;;;;;;;;;5045401;28;20045;-75
2022/10/01 03:42:54;;;;;;;21.55;12.32;;;;;;;;;;5046841;28;20053;-75
2022/10/01 03:45:24;;;;;;;23.13;13.45;;;;;;;;;;5046719;28;20488;-71
2022/10/01 03:47:53;;;;;;;22.65;12.48;;;;;;;;;;5046377;28;20048;-75
2022/10/01 03:50:23;;;;;;;21.00;13.20;;;;;;;;;;5046868;28;20052;-75
2022/10/01 03:52:52;;;;;;;;;;;;;;;;;;5046935;28;20057;-75
2022/10/01 03:55:24;;;;;;;20.80;11.57;;;;;;;;;;5046801;28;19921;-74
2022/10/01 03:57:54;;;;;;;30.60;12.88;;;;;;;;;;5046988;28;20045;-74
2022/10/01 04:00:24;;;;;;;;;;;;;;;;;;5047031;28;20567;-71
2022/10/01 04:02:53;;;;;;;24.02;11.40;;;;;;;;;;5045860;28;20383;-71
2022/10/01 04:05:24;;;;;;;29.90;13.20;;;;;;;;;;5047341;28;20053;-75
2022/10/01 04:07:54;;;;;;;24.92;13.18;;;;;;;;;;5046762;28;20037;-75
2022/10/01 04:10:25;;;;;;;23.02;13.40;;;;;;;;;;5046618;28;20045;-76
2022/10/01 04:12:54;;;;;;;21.55;12.23;;;;;;;;;;5047008;28;20076;-75
2022/10/01 04:15:24;;;;;;;19.23;10.35;;;;;;;;;;5046398;28;20064;-73
2022/10/01 04:17:54;;;;;;;18.58;10.57;;;;;;;;;;5046382;28;20048;-74
2022/10/01 04:20:24;;;;;;;19.20;11.05;;;;;;;;;;5046109;28;20757;-74
2022/10/01 04:22:53;;;;;;;34.38;12.57;;;;;;;;;;5046035;28;20048;-74
2022/10/01 04:25:23;;;;;;;27.15;12.77;;;;;;;;;;5046701;28;20048;-70
2022/10/01 04:28:02;;;;;;;33.65;12.35;;;;;;;;;;5046297;28;20033;-73
2022/10/01 04:30:41;;;;;;;28.65;12.32;;;;;;;;;;5045863;28;20053;-73
2022/10/01 04:33:15;;;;;;;30.58;12.25;;;;;;;;;;5046278;28;20415;-71
2022/10/01 04:35:46;;;;;;;20.60;11.10;;;;;;;;;;5046342;28;20041;-70
2022/10/01 04:38:16;;;;;;;27.10;10.90;;;;;;;;;;5046714;28;20056;-75
2022/10/01 04:40:47;;;;;;;39.90;11.95;;;;;;;;;;5046171;28;20072;-72
2022/10/01 04:43:17;;;;;;;48.22;12.23;;;;;;;;;;5046341;28;20049;-75
2022/10/01 04:45:46;;;;;;;70.53;12.70;;;;;;;;;;5046588;28;20068;-70
2022/10/01 04:48:16;;;;;;;29.15;11.18;;;;;;;;;;5045853;28;20712;-73
2022/10/01 04:50:47;;;;;;;94.38;13.57;;;;;;;;;;5046951;28;20045;-73
2022/10/01 04:53:17;;;;;;;98.35;13.50;;;;;;;;;;5045593;28;20064;-72
2022/10/01 04:55:47;;;;;;;57.50;12.40;;;;;;;;;;5046422;28;20049;-74
2022/10/01 04:58:17;;;;;;;65.70;11.25;;;;;;;;;;5046416;28;20041;-72
2022/10/01 05:00:48;;;;;;;64.10;12.38;;;;;;;;;;5048785;28;20052;-74
2022/10/01 05:03:19;;;;;;;66.20;12.70;;;;;;;;;;5049949;28;20040;-73
2022/10/01 05:05:48;;;;;;;42.72;12.15;;;;;;;;;;5050169;28;20419;-72
2022/10/01 05:08:18;;;;;;;24.33;10.85;;;;;;;;;;5049586;28;20052;-72
2022/10/01 05:10:48;;;;;;;39.00;11.43;;;;;;;;;;5050064;28;20044;-72
2022/10/01 05:13:18;;;;;;;39.50;11.77;;;;;;;;;;5050045;28;20049;-72
2022/10/01 05:15:50;;;;;;;42.35;13.45;;;;;;;;;;5050206;28;20060;-73
2022/10/01 05:18:21;;;;;;;41.63;11.30;;;;;;;;;;5049804;28;20056;-72
2022/10/01 05:20:51;;;;;;;45.28;12.98;;;;;;;;;;5049935;28;20056;-75
2022/10/01 05:23:21;;;;;;;49.88;12.45;;;;;;;;;;5048811;28;20054;-73
2022/10/01 05:25:50;;;;;;;36.10;12.40;;;;;;;;;;5050046;28;20045;-75
2022/10/01 05:28:20;;;;;;;38.45;12.48;;;;;;;;;;5049260;28;20436;-76
2022/10/01 05:30:50;;;;;;;45.28;13.50;;;;;;;;;;5049658;28;20061;-72
2022/10/01 05:33:20;;;;;;;34.72;13.48;;;;;;;;;;5049511;28;20427;-72
2022/10/01 05:35:50;;;;;;;80.05;13.75;;;;;;;;;;5049721;28;20048;-73
2022/10/01 05:38:20;;;;;;;41.60;11.63;;;;;;;;;;5049963;28;20064;-74
2022/10/01 05:40:50;;;;;;;47.08;13.07;;;;;;;;;;5049591;28;20061;-72
2022/10/01 05:43:20;;;;;;;52.03;12.43;;;;;;;;;;5049630;28;20056;-72
2022/10/01 05:45:50;;;;;;;46.13;12.55;;;;;;;;;;5049391;28;20056;-70
2022/10/01 05:48:20;;;;;;;33.78;12.73;;;;;;;;;;5048891;28;20045;-73
2022/10/01 05:50:50;;;;;;;24.27;11.57;;;;;;;;;;5047315;28;20152;-72
2022/10/01 05:53:22;;;;;;;19.55;10.52;;;;;;;;;;5048414;28;20053;-76
2022/10/01 05:55:52;;;;;;;20.85;10.70;;;;;;;;;;5048180;28;20049;-71
2022/10/01 05:58:22;;;;;;;19.67;9.77;;;;;;;;;;5048832;28;20538;-73
2022/10/01 06:00:54;;;;;;;17.58;10.25;;;;;;;;;;5049145;28;20041;-74
2022/10/01 06:03:27;;;;;;;21.05;10.40;;;;;;;;;;5048370;28;20412;-70
2022/10/01 06:05:57;;;;;;;17.52;9.35;;;;;;;;;;5048149;28;20507;-74
2022/10/01 06:08:27;;;;;;;22.45;10.63;;;;;;;;;;5046399;28;20111;-72
2022/10/01 06:11:01;;;;;;;20.00;9.55;;;;;;;;;;5048018;28;20044;-75
2022/10/01 06:13:31;;;;;;;20.83;10.55;;;;;;;;;;5048385;28;20062;-73
2022/10/01 06:16:01;;;;;;;20.40;10.10;;;;;;;;;;5047768;28;20052;-71
2022/10/01 06:18:31;;;;;;;17.48;10.57;;;;;;;;;;5047950;28;20409;-70
2022/10/01 06:21:00;;;;;;;18.73;10.52;;;;;;;;;;5047230;28;20052;-73
2022/10/01 06:23:31;;;;;;;18.33;9.95;;;;;;;;;;5047837;28;20052;-75
2022/10/01 06:26:04;;;;;;;17.38;9.30;;;;;;;;;;5048196;28;20056;-74
2022/10/01 06:28:34;;;;;;;23.10;10.38;;;;;;;;;;5047576;28;20389;-71
2022/10/01 06:31:04;;;;;;;17.90;10.40;;;;;;;;;;5047780;28;20075;-74
2022/10/01 06:33:34;;;;;;;23.13;10.98;;;;;;;;;;5047003;28;20052;-72
2022/10/01 06:36:05;;;;;;;23.65;10.50;;;;;;;;;;5047078;28;20053;-72
2022/10/01 06:38:34;;;;;;;20.55;9.93;;;;;;;;;;5047518;28;20052;-74
2022/10/01 06:41:04;;;;;;;23.60;10.45;;;;;;;;;;5047869;28;20041;-72
2022/10/01 06:43:34;;;;;;;24.33;11.57;;;;;;;;;;5048250;28;20052;-75
2022/10/01 06:46:04;;;;;;;;;;;;;;;;;;5048689;28;20061;-73
2022/10/01 06:48:35;;;;;;;20.10;9.20;;;;;;;;;;5047017;28;19932;-71
2022/10/01 06:51:05;;;;;;;21.52;11.52;;;;;;;;;;5047635;28;20049;-72
2022/10/01 06:53:35;;;;;;;23.40;11.52;;;;;;;;;;5048117;28;20056;-72
2022/10/01 06:56:06;;;;;;;21.15;11.52;;;;;;;;;;5047373;28;20045;-75
2022/10/01 06:58:36;;;;;;;21.23;11.20;;;;;;;;;;5048126;28;20040;-74
2022/10/01 07:01:06;;;;;;;20.65;11.60;;;;;;;;;;5047585;28;20036;-71
2022/10/01 07:03:36;;;;;;;23.45;11.05;;;;;;;;;;5046220;28;20049;-72
2022/10/01 07:06:07;;;;;;;24.63;10.77;;;;;;;;;;5047543;28;20048;-74
2022/10/01 07:08:37;;;;;;;22.10;10.02;;;;;;;;;;5047471;28;20049;-74
2022/10/01 07:11:07;;;;;;;27.33;11.30;;;;;;;;;;5046939;28;20403;-71
2022/10/01 07:13:37;;;;;;;25.02;10.70;;;;;;;;;;5047433;28;20053;-74
2022/10/01 07:16:07;;;;;;;22.15;11.00;;;;;;;;;;5046936;28;20116;-74
2022/10/01 07:18:36;;;;;;;19.80;11.00;;;;;;;;;;5047398;28;20049;-73
2022/10/01 07:21:06;;;;;;;;;;;;;;;;;;5047260;28;20071;-76
2022/10/01 07:23:35;;;;;;;18.92;10.82;;;;;;;;;;5046374;28;19943;-73
2022/10/01 07:26:08;;;;;;;20.35;10.85;;;;;;;;;;5045220;28;20067;-73
2022/10/01 07:28:38;;;;;;;20.30;11.98;;;;;;;;;;5046725;28;20045;-73
2022/10/01 07:31:10;;;;;;;19.42;11.38;;;;;;;;;;5046445;28;20055;-77
2022/10/01 07:33:41;;;;;;;20.70;11.63;;;;;;;;;;5046304;28;20041;-72
2022/10/01 07:36:12;;;;;;;21.35;11.48;;;;;;;;;;5046631;28;20053;-73
2022/10/01 07:38:43;;;;;;;24.95;11.50;;;;;;;;;;5046409;28;20045;-76
2022/10/01 07:41:16;;;;;;;24.20;10.90;;;;;;;;;;5046724;28;20614;-69
2022/10/01 07:43:46;;;;;;;22.80;11.77;;;;;;;;;;5046712;28;20041;-71
2022/10/01 07:46:16;;;;;;;24.83;12.68;;;;;;;;;;5045476;28;20056;-72
2022/10/01 07:48:48;;;;;;;27.50;12.85;;;;;;;;;;5046796;28;20526;-71
2022/10/01 07:51:18;;;;;;;24.42;12.40;;;;;;;;;;5046218;28;20055;-70
2022/10/01 07:53:47;;;;;;;;;;;;;;;;;;5045562;28;20060;-73
2022/10/01 07:56:17;;;;;;;21.98;12.38;;;;;;;;;;5047457;28;20386;-75
2022/10/01 07:58:49;;;;;;;23.52;11.40;;;;;;;;;;5045117;28;20044;-75
2022/10/01 08:01:19;;;;;;;22.55;12.52;;;;;;;;;;5046781;28;20041;-74
2022/10/01 08:03:51;;;;;;;21.58;12.07;;;;;;;;;;5046126;28;20053;-75
2022/10/01 08:06:21;;;;;;;23.77;12.32;;;;;;;;;;5046967;28;20063;-70
2022/10/01 08:08:53;;;;;;;24.63;11.38;;;;;;;;;;5046030;28;20045;-74
2022/10/01 08:11:23;;;;;;;;;;;;;;;;;;5046379;28;20056;-75
2022/10/01 08:13:54;;;;;;;25.90;11.25;;;;;;;;;;5044876;28;19947;-74
2022/10/01 08:16:27;;;;;;;22.42;11.25;;;;;;;;;;5045988;28;20411;-70
2022/10/01 08:18:58;;;;;;;20.80;11.50;;;;;;;;;;5045945;28;20041;-71
2022/10/01 08:21:28;;;;;;;26.35;12.23;;;;;;;;;;5045971;28;20048;-73
2022/10/01 08:23:58;;;;;;;22.42;11.85;;;;;;;;;;5046264;28;20412;-74
2022/10/01 08:26:28;;;;;;;24.75;11.70;;;;;;;;;;5045969;28;20416;-73
2022/10/01 08:28:58;;;;;;;22.83;12.07;;;;;;;;;;5044635;28;20432;-73
2022/10/01 08:31:29;;;;;;;25.05;11.77;;;;;;;;;;5046105;28;20048;-75
2022/10/01 08:34:01;;;;;;;23.98;11.73;;;;;;;;;;5046601;28;20507;-73
2022/10/01 08:36:34;;;;;;;19.88;11.75;;;;;;;;;;5049758;28;20504;-71
2022/10/01 08:39:04;;;;;;;22.52;11.63;;;;;;;;;;5049837;28;20586;-72
2022/10/01 08:41:43;;;;;;;;;;;;;;;;;;5050790;28;20431;-75
2022/10/01 08:44:26;;;;;;;20.90;11.13;;;;;;;;;;5049362;28;19920;-73
2022/10/01 08:47:07;;;;;;;23.98;10.98;;;;;;;;;;5049450;28;20423;-72
2022/10/01 08:49:46;;;;;;;18.42;10.77;;;;;;;;;;5047971;28;20076;-72
2022/10/01 08:52:25;;;;;;;20.05;10.75;;;;;;;;;;5050215;28;20059;-74
2022/10/01 08:55:10;;;;;;;20.80;11.32;;;;;;;;;;5049177;28;20052;-76
2022/10/01 08:57:48;;;;;;;17.55;9.70;;;;;;;;;;5049297;28;20045;-72
2022/10/01 09:00:19;;;;;;;20.63;9.73;;;;;;;;;;5049106;28;20049;-74
2022/10/01 09:02:51;;;;;;;18.30;10.48;;;;;;;;;;5048641;28;20504;-72
2022/10/01 09:06:03;;;;;;;20.48;10.70;;;;;;;;;;5048789;28;20057;-73
2022/10/01 09:08:50;;;;;;;19.63;10.15;;;;;;;;;;5035688;28;20064;-71
2022/10/01 09:11:23;;;;;;;19.25;10.35;;;;;;;;;;5049605;28;20431;-73
2022/10/01 09:14:08;;;;;;;19.23;10.52;;;;;;;;;;5049445;28;20533;-75
2022/10/01 09:16:53;;;;;;;21.92;9.85;;;;;;;;;;5048853;28;20412;-76
2022/10/01 09:19:53;;;;;;;23.95;10.73;;;;;;;;;;5048066;28;20045;-71
2022/10/01 09:23:05;;;;;;;22.23;10.60;;;;;;;;;;5048894;28;20049;-72
2022/10/01 09:25:38;;;;;;;29.45;11.50;;;;;;;;;;5048974;28;20045;-74
2022/10/01 09:28:34;;;;;;;22.50;11.50;;;;;;;;;;5049208;28;20041;-72
2022/10/01 09:31:26;;;;;;;23.67;11.43;;;;;;;;;;5047745;28;20065;-76
2022/10/01 09:34:13;;;;;;;19.65;11.15;;;;;;;;;;5049023;28;20041;-71
2022/10/01 09:37:08;;;;;;;20.33;10.98;;;;;;;;;;5048894;28;20049;-75
2022/10/01 09:40:05;;;;;;;30.35;11.98;;;;;;;;;;5049190;28;20049;-74
2022/10/01 09:42:35;;;;;;;17.80;11.10;;;;;;;;;;5047655;28;20377;-73
2022/10/01 09:45:05;;;;;;;20.95;11.82;;;;;;;;;;5047411;28;20041;-74
2022/10/01 09:47:35;;;;;;;19.00;10.65;;;;;;;;;;5048831;28;20492;-71
2022/10/01 09:50:06;;;;;;;22.83;11.55;;;;;;;;;;5048758;28;20072;-71
2022/10/01 09:52:38;;;;;;;22.02;11.70;;;;;;;;;;5048414;28;20056;-72
2022/10/01 09:55:24;;;;;;;24.13;11.95;;;;;;;;;;5049104;28;20052;-74
2022/10/01 09:58:20;;;;;;;21.38;12.60;;;;;;;;;;5048627;28;20516;-73
2022/10/01 10:00:52;;;;;;;22.42;12.95;;;;;;;;;;5049583;28;20526;-73
2022/10/01 10:03:29;;;;;;;22.20;12.20;;;;;;;;;;5048711;28;20103;-72
2022/10/01 10:06:00;;;;;;;22.63;12.35;;;;;;;;;;5047771;28;20037;-75
2022/10/01 10:08:32;;;;;;;25.15;13.73;;;;;;;;;;5048527;28;20053;-76
2022/10/01 10:11:07;;;;;;;21.08;12.48;;;;;;;;;;5048533;28;20611;-71
2022/10/01 10:13:49;;;;;;;20.63;13.07;;;;;;;;;;5047139;28;20052;-73
2022/10/01 10:16:25;;;;;;;24.83;12.45;;;;;;;;;;5047777;28;20053;-75
2022/10/01 10:19:01;;;;;;;24.50;13.48;;;;;;;;;;5046930;28;20064;-76
2022/10/01 10:21:33;;;;;;;23.23;13.02;;;;;;;;;;5048449;28;20072;-73
2022/10/01 10:24:06;;;;;;;21.80;11.77;;;;;;;;;;5048811;28;20053;-71
2022/10/01 10:26:38;;;;;;;23.05;11.43;;;;;;;;;;5047813;28;20123;-75
2022/10/01 10:29:27;;;;;;;20.92;11.82;;;;;;;;;;5047483;28;20049;-72
2022/10/01 10:31:58;;;;;;;20.77;11.65;;;;;;;;;;5048131;28;20056;-75
2022/10/01 10:34:38;;;;;;;19.80;11.77;;;;;;;;;;5046861;28;20052;-73
2022/10/01 10:37:15;;;;;;;19.58;11.82;;;;;;;;;;5047846;28;20057;-73
2022/10/01 10:39:50;;;;;;;15.95;10.55;;;;;;;;;;5047550;28;20076;-71
2022/10/01 10:42:24;;;;;;;20.65;10.70;;;;;;;;;;5046583;28;20671;-73
2022/10/01 10:45:01;;;;;;;22.70;11.77;;;;;;;;;;5045907;28;20045;-74
2022/10/01 10:47:32;;;;;;;19.25;11.95;;;;;;;;;;5046835;28;20060;-73
2022/10/01 10:50:05;;;;;;;16.65;10.05;;;;;;;;;;5046519;28;20041;-75
2022/10/01 10:52:36;;;;;;;17.98;10.93;;;;;;;;;;5046625;28;20064;-72
2022/10/01 10:55:23;;;;;;;15.77;10.77;;;;;;;;;;5046029;28;20075;-73
2022/10/01 10:57:54;;;;;;;22.15;12.00;;;;;;;;;;5046234;28;20049;-70
2022/10/01 11:00:28;;;;;;;22.02;11.68;;;;;;;;;;5048130;28;20051;-76
2022/10/01 11:03:02;;;;;;;17.83;11.77;;;;;;;;;;5047891;28;20049;-73
2022/10/01 11:05:40;;;;;;;17.13;11.20;;;;;;;;;;5047467;28;20053;-71
2022/10/01 11:08:22;;;;;;;19.13;11.95;;;;;;;;;;5047770;28;20041;-77
2022/10/01 11:11:04;;;;;;;20.73;11.98;;;;;;;;;;5047664;28;20045;-72
2022/10/01 11:13:41;;;;;;;19.73;11.73;;;;;;;;;;5047530;28;20041;-70
2022/10/01 11:16:28;;;;;;;20.10;11.40;;;;;;;;;;5047134;28;20063;-70
2022/10/01 11:19:10;;;;;;;19.13;11.23;;;;;;;;;;5047071;28;20045;-75
2022/10/01 11:22:04;;;;;;;21.98;11.10;;;;;;;;;;5046239;28;21109;-75
2022/10/01 11:24:51;;;;;;;17.20;10.73;;;;;;;;;;5047161;28;20558;-72
2022/10/01 11:27:58;;;;;;;19.50;10.35;;;;;;;;;;5046932;28;20049;-72
2022/10/01 11:30:56;;;;;;;16.65;10.13;;;;;;;;;;5047210;28;20040;-74
2022/10/01 11:33:52;;;;;;;15.73;10.43;;;;;;;;;;5046911;28;20056;-76
2022/10/01 11:36:26;;;;;;;14.07;9.13;;;;;;;;;;5036705;28;20064;-75
2022/10/01 11:39:04;;;;;;;20.48;10.48;;;;;;;;;;5046891;28;20049;-73
2022/10/01 11:41:46;;;;;;;17.63;10.45;;;;;;;;;;5046972;28;20053;-75
2022/10/01 11:44:51;;;;;;;19.48;11.00;;;;;;;;;;5045416;28;20048;-75
2022/10/01 11:47:35;;;;;;;20.83;10.43;;;;;;;;;;5024109;28;20061;-72
2022/10/01 11:50:18;;;;;;;17.67;10.93;;;;;;;;;;5045351;28;20067;-75
2022/10/01 11:52:57;;;;;;;17.10;11.00;;;;;;;;;;5045438;28;20045;-74
2022/10/01 11:59:06;;;;;;;19.08;10.45;;;;;;;;;;5024321;28;20037;-74
2022/10/01 12:01:39;;;;;;;14.98;9.45;;;;;;;;;;5024371;28;20076;-72
2022/10/01 12:04:21;;;;;;;23.33;15.60;;;;;;;;;;5041220;28;20061;-75
2022/10/01 12:07:19;;;;;;;19.17;10.45;;;;;;;;;;5045896;28;20535;-74
2022/10/01 12:10:20;;;;;;;15.18;10.48;;;;;;;;;;5049866;28;20045;-72
2022/10/01 12:13:15;;;;;;;15.95;9.48;;;;;;;;;;5046547;28;20065;-74
2022/10/01 12:16:00;;;;;;;;;;;;;;;;;;5051341;28;20048;-71
2022/10/01 12:18:43;;;;;;;19.25;10.23;;;;;;;;;;5056332;28;19928;-69
2022/10/01 12:21:28;;;;;;;24.60;10.85;;;;;;;;;;5056310;28;20519;-74
2022/10/01 12:24:04;;;;;;;16.48;10.30;;;;;;;;;;5050289;28;20045;-71
2022/10/01 12:26:46;;;;;;;18.02;9.90;;;;;;;;;;5049954;28;20064;-72
2022/10/01 12:29:43;;;;;;;18.00;10.27;;;;;;;;;;5049983;28;20045;-72
2022/10/01 12:32:23;;;;;;;20.58;9.95;;;;;;;;;;5049795;28;20056;-73
2022/10/01 12:35:20;;;;;;;13.52;9.45;;;;;;;;;;5049857;28;20041;-72
2022/10/01 12:38:13;;;;;;;13.20;8.98;;;;;;;;;;5050418;28;20051;-74
2022/10/01 12:40:46;;;;;;;15.25;9.30;;;;;;;;;;5050459;28;20060;-76
2022/10/01 12:43:37;;;;;;;25.70;11.35;;;;;;;;;;5050118;28;20052;-72
2022/10/01 12:46:34;;;;;;;22.80;10.30;;;;;;;;;;5050208;28;20049;-71
2022/10/01 12:49:26;;;;;;;19.67;9.07;;;;;;;;;;5051215;28;20538;-74
2022/10/01 12:52:32;;;;;;;24.15;9.82;;;;;;;;;;5050409;28;20049;-77
2022/10/01 12:55:20;;;;;;;17.40;8.90;;;;;;;;;;5042232;28;20065;-71
2022/10/01 12:58:11;;;;;;;;;;;;;;;;;;5050423;28;20045;-69
2022/10/01 13:01:05;;;;;;;13.85;8.23;;;;;;;;;;5049707;28;19931;-71
2022/10/01 13:03:38;;;;;;;16.65;8.40;;;;;;;;;;5049766;28;20048;-70
2022/10/01 13:06:21;;;;;;;14.32;8.23;;;;;;;;;;5049915;28;20041;-72
2022/10/01 13:09:02;;;;;;;16.10;7.25;;;;;;;;;;5050461;28;20083;-74
2022/10/01 13:11:44;;;;;;;21.65;8.20;;;;;;;;;;5050209;28;20077;-73
2022/10/01 13:14:16;;;;;;;17.33;8.30;;;;;;;;;;5049009;28;20048;-77
2022/10/01 13:17:09;;;;;;;11.77;7.00;;;;;;;;;;5048933;28;20056;-71
2022/10/01 13:19:50;;;;;;;14.88;7.40;;;;;;;;;;5049843;28;20057;-71
2022/10/01 13:22:37;;;;;;;11.63;6.75;;;;;;;;;;5049650;28;20048;-71
2022/10/01 13:25:45;;;;;;;12.20;7.22;;;;;;;;;;5049227;28;20045;-70
2022/10/01 13:28:36;;;;;;;15.32;7.47;;;;;;;;;;5049287;28;20048;-73
2022/10/01 13:31:14;;;;;;;11.95;6.85;;;;;;;;;;5049537;28;20049;-74
2022/10/01 13:33:56;;;;;;;12.25;7.32;;;;;;;;;;5049242;28;20055;-73
2022/10/01 13:36:33;;;;;;;15.63;7.05;;;;;;;;;;5049307;28;20049;-73
2022/10/01 13:39:04;;;;;;;21.85;7.57;;;;;;;;;;5048784;28;20056;-75
2022/10/01 13:41:34;;;;;;;15.18;7.70;;;;;;;;;;5049546;28;20045;-70
2022/10/01 13:44:07;;;;;;;10.63;6.28;;;;;;;;;;5048751;28;20052;-74
2022/10/01 13:46:52;;;;;;;16.50;8.05;;;;;;;;;;5048505;28;20416;-71
2022/10/01 13:49:30;;;;;;;9.30;6.35;;;;;;;;;;5049353;28;20049;-70
2022/10/01 13:52:01;;;;;;;10.70;6.27;;;;;;;;;;5048419;28;20048;-71
2022/10/01 13:54:45;;;;;;;12.00;5.95;;;;;;;;;;5049463;28;20589;-73
2022/10/01 13:57:30;;;;;;;19.63;7.47;;;;;;;;;;5048930;28;20071;-74
2022/10/01 14:00:15;;;;;;;12.20;6.13;;;;;;;;;;5049180;28;20063;-73
2022/10/01 14:03:22;;;;;;;12.18;6.85;;;;;;;;;;5047552;28;20048;-73
2022/10/01 14:06:04;;;;;;;9.73;4.50;;;;;;;;;;5048507;28;20045;-72
2022/10/01 14:08:45;;;;;;;8.70;5.25;;;;;;;;;;5047789;28;20053;-72
2022/10/01 14:17:29;;;;;;;8.90;4.25;;;;;;;;;;5048242;28;20044;-71
2022/10/01 14:20:00;;;;;;;7.70;5.45;;;;;;;;;;5047946;28;20163;-75
2022/10/01 14:23:04;;;;;;;13.82;6.18;;;;;;;;;;5049231;28;20053;-72
2022/10/01 14:25:50;;;;;;;15.38;5.68;;;;;;;;;;5037536;28;20056;-72
2022/10/01 14:28:33;;;;;;;7.95;5.15;;;;;;;;;;5048359;28;20049;-72
2022/10/01 14:31:36;;;;;;;11.27;4.97;;;;;;;;;;5048722;28;20048;-73
2022/10/01 14:34:37;;;;;;;21.58;6.15;;;;;;;;;;5049344;28;20499;-69
2022/10/01 14:37:11;;;;;;;13.80;5.45;;;;;;;;;;5055136;28;20049;-71
2022/10/01 14:39:45;;;;;;;8.45;4.38;;;;;;;;;;5051421;28;20049;-71
2022/10/01 14:42:17;;;;;;;12.95;5.53;;;;;;;;;;5049009;28;20599;-70
2022/10/01 14:44:47;;;;;;;9.70;4.72;;;;;;;;;;5049126;28;20056;-77
2022/10/01 14:47:26;;;;;;;8.90;4.72;;;;;;;;;;5050110;28;20064;-73
2022/10/01 14:50:07;;;;;;;8.48;5.30;;;;;;;;;;5048918;28;20530;-75
2022/10/01 14:52:42;;;;;;;8.68;4.72;;;;;;;;;;5048489;28;20155;-74
2022/10/01 14:55:15;;;;;;;11.77;5.20;;;;;;;;;;5048924;28;20060;-73
2022/10/01 14:57:52;;;;;;;4.88;3.20;;;;;;;;;;5048520;28;20057;-73
2022/10/01 15:00:31;;;;;;;6.20;3.90;;;;;;;;;;5047815;28;20045;-76
2022/10/01 15:03:11;;;;;;;7.03;3.78;;;;;;;;;;5049101;28;20412;-75
2022/10/01 15:05:42;;;;;;;10.38;4.00;;;;;;;;;;5048876;28;20052;-69
2022/10/01 15:08:22;;;;;;;5.10;3.40;;;;;;;;;;5049049;28;20052;-74
2022/10/01 15:11:06;;;;;;;12.18;6.43;;;;;;;;;;5049024;28;20040;-77
2022/10/01 15:13:39;;;;;;;7.63;3.65;;;;;;;;;;5050463;28;20053;-77
2022/10/01 15:16:19;;;;;;;8.00;5.13;;;;;;;;;;5050114;28;20052;-73
2022/10/01 15:19:05;;;;;;;6.93;3.88;;;;;;;;;;5051310;28;20080;-73
2022/10/01 15:22:01;;;;;;;5.72;3.78;;;;;;;;;;5051148;28;20049;-75
2022/10/01 15:24:47;;;;;;;4.88;3.53;;;;;;;;;;5050233;28;20055;-74
2022/10/01 15:27:20;;;;;;;7.85;3.50;;;;;;;;;;5051058;28;20036;-73
2022/10/01 15:29:52;;;;;;;10.98;9.02;;;;;;;;;;5049812;28;21068;-74
2022/10/01 15:32:26;;;;;;;4.95;3.70;;;;;;;;;;5049787;28;20543;-73